Time;durP1;ratioP1;P1;durP2;ratioP2;P2;SDS_P1;SDS_P2;PMS_P1;PMS_P2;Temp;Humidity;BMP_temperature;BMP_pressure;BME280_temperature;BME280_humidity;BME280_pressure;Samples;Min_cycle;Max_cycle;Signal;HPM_P1;HPM_P2
2022/10/11 00:00:43;;;;;;;15.07;3.67;;;13.90;99.90;;;13.05;100.00;101916.06;5099662;23;20009;-78
2022/10/11 00:02:44;;;;;;;9.25;1.77;;;13.80;99.90;;;13.03;100.00;101915.38;5073448;23;20017;-77
2022/10/11 00:04:45;;;;;;;5.22;1.75;;;13.80;99.90;;;12.98;100.00;101925.59;5073664;23;20118;-78
2022/10/11 00:06:46;;;;;;;9.98;2.20;;;13.80;99.90;;;12.96;100.00;101924.88;5099545;23;20001;-78
2022/10/11 00:08:47;;;;;;;6.38;1.42;;;13.70;99.90;;;12.98;100.00;101925.59;5099466;23;20008;-77
2022/10/11 00:10:59;;;;;;;10.88;2.17;;;13.70;99.90;;;12.89;100.00;101907.06;5073681;23;20013;-77
2022/10/11 00:13:01;;;;;;;9.90;1.88;;;13.60;99.90;;;12.94;100.00;101912.75;5074027;23;20010;-77
2022/10/11 00:15:04;;;;;;;7.30;1.50;;;13.60;99.90;;;12.91;100.00;101913.03;5048943;23;20010;-77
2022/10/11 00:17:06;;;;;;;6.80;1.63;;;13.60;99.90;;;12.88;100.00;101908.03;5048978;23;20010;-78
2022/10/11 00:19:07;;;;;;;6.68;1.30;;;13.60;99.90;;;12.83;100.00;101912.94;5097659;23;20128;-77
2022/10/11 00:21:12;;;;;;;7.40;2.50;;;13.60;99.90;;;12.76;100.00;101904.72;5099351;23;20005;-78
2022/10/11 00:23:13;;;;;;;9.75;1.73;;;13.50;99.90;;;12.76;100.00;101907.34;5073743;23;20013;-78
2022/10/11 00:25:15;;;;;;;10.30;1.90;;;13.50;99.90;;;12.68;100.00;101912.53;5072825;23;20009;-78
2022/10/11 00:27:16;;;;;;;6.93;1.77;;;13.50;99.90;;;12.59;100.00;101914.22;5072916;23;20037;-77
2022/10/11 00:29:17;;;;;;;12.73;2.97;;;13.40;99.90;;;12.62;100.00;101923.69;5073512;23;20002;-78
2022/10/11 00:31:18;;;;;;;7.28;1.63;;;13.40;99.90;;;12.57;100.00;101913.50;5099335;23;20080;-77
2022/10/11 00:33:19;;;;;;;8.75;1.70;;;13.30;99.90;;;12.55;100.00;101914.63;5099235;23;20005;-78
2022/10/11 00:35:20;;;;;;;10.10;3.45;;;13.30;99.90;;;12.51;100.00;101910.59;5073428;23;20014;-77
2022/10/11 00:37:21;;;;;;;7.93;1.60;;;13.30;99.90;;;12.53;100.00;101916.59;5073252;23;20026;-78
2022/10/11 00:39:22;;;;;;;8.68;2.22;;;13.30;99.90;;;12.51;100.00;101923.84;5099089;23;20009;-77
2022/10/11 00:41:22;;;;;;;9.80;2.35;;;13.30;99.90;;;12.56;100.00;101924.25;5099216;23;20077;-77
2022/10/11 00:43:30;;;;;;;10.07;2.33;;;13.20;99.90;;;12.53;100.00;101916.59;5073461;23;20398;-78
2022/10/11 00:45:31;;;;;;;9.55;1.92;;;13.30;99.90;;;12.56;100.00;101916.31;5074448;23;20002;-78
2022/10/11 00:47:32;;;;;;;10.70;2.00;;;13.30;99.90;;;12.58;100.00;101911.69;5099305;23;20125;-78
2022/10/11 00:49:39;;;;;;;11.10;1.80;;;13.40;99.90;;;12.66;100.00;101919.78;5073223;23;20411;-78
2022/10/11 00:51:53;;;;;;;7.63;2.17;;;13.40;99.90;;;12.66;100.00;101915.31;5099040;23;20005;-78
2022/10/11 00:53:55;;;;;;;6.65;1.35;;;13.40;99.90;;;12.65;100.00;101920.75;5048601;23;20017;-78
2022/10/11 00:56:08;;;;;;;9.93;2.33;;;13.40;99.90;;;12.70;100.00;101927.28;5097484;23;20009;-78
2022/10/11 00:58:11;;;;;;;11.23;2.20;;;13.40;99.90;;;12.68;100.00;101928.41;5074351;23;20010;-78
2022/10/11 01:00:14;;;;;;;9.23;2.33;;;13.50;99.90;;;12.68;100.00;101928.41;5073199;23;20694;-78
2022/10/11 01:02:16;;;;;;;9.32;2.17;;;13.40;99.90;;;12.67;100.00;101921.44;5073456;23;20033;-78
2022/10/11 01:04:17;;;;;;;7.00;2.22;;;13.40;99.90;;;12.63;100.00;101920.88;5099025;23;20033;-78
2022/10/11 01:06:18;;;;;;;5.63;1.20;;;13.40;99.90;;;12.62;100.00;101918.38;5073150;23;20006;-78
2022/10/11 01:08:20;;;;;;;12.95;2.53;;;13.30;99.90;;;12.59;100.00;101926.63;5099149;23;20524;-78
2022/10/11 01:10:21;;;;;;;10.68;2.30;;;13.30;99.90;;;12.53;100.00;101925.38;5072815;23;20006;-78
2022/10/11 01:12:25;;;;;;;11.70;2.80;;;13.30;99.90;;;12.52;100.00;101928.13;5098954;23;20017;-78
2022/10/11 01:14:42;;;;;;;8.25;1.90;;;13.30;99.90;;;12.49;100.00;101923.97;5098917;23;20029;-78
2022/10/11 01:17:05;;;;;;;11.15;2.30;;;13.30;99.90;;;12.47;100.00;101925.06;5099146;23;20447;-78
2022/10/11 01:19:36;;;;;;;9.07;1.67;;;13.20;99.90;;;12.45;100.00;101932.34;5076131;23;20006;-78
2022/10/11 01:21:51;;;;;;;6.45;1.38;;;13.20;99.90;;;12.38;100.00;101934.69;5099143;23;20550;-78
2022/10/11 01:24:45;;;;;;;12.32;2.00;;;13.10;99.90;;;12.32;100.00;101931.75;5073360;23;20395;-78
2022/10/11 01:27:33;;;;;;;11.30;3.03;;;13.10;99.90;;;12.24;100.00;101926.31;5039923;23;20330;-78
2022/10/11 01:30:02;;;;;;;8.55;1.75;;;13.00;99.90;;;12.14;100.00;101929.78;5082138;23;20013;-78
2022/10/11 01:32:39;;;;;;;8.38;1.80;;;12.90;99.90;;;12.07;100.00;101928.66;5098856;23;20014;-78
2022/10/11 01:34:46;;;;;;;6.40;1.60;;;12.90;99.90;;;12.03;100.00;101937.03;5038405;23;20038;-78
2022/10/11 01:37:07;;;;;;;6.65;1.65;;;12.80;99.90;;;11.92;100.00;101918.59;5072752;23;20494;-78
2022/10/11 01:39:54;;;;;;;7.57;1.60;;;12.80;99.90;;;11.88;100.00;101923.34;5074678;23;20072;-78
2022/10/11 01:41:59;;;;;;;10.80;1.73;;;12.70;99.90;;;11.82;100.00;101920.41;5098774;23;20020;-78
2022/10/11 01:44:02;;;;;;;11.32;1.77;;;12.60;99.90;;;11.82;100.00;101931.81;5073234;23;20060;-77
2022/10/11 01:46:07;;;;;;;9.65;1.73;;;12.60;99.90;;;11.78;100.00;101925.13;5073126;23;20082;-77
2022/10/11 01:48:11;;;;;;;13.93;2.00;;;12.60;99.90;;;11.79;100.00;101928.59;5073375;23;20131;-77
2022/10/11 01:50:34;;;;;;;8.45;2.25;;;12.50;99.90;;;11.72;100.00;101933.59;5098684;23;20005;-78
2022/10/11 01:52:42;;;;;;;4.75;1.33;;;12.50;99.90;;;11.70;100.00;101924.97;5098660;23;20084;-78
2022/10/11 01:55:13;;;;;;;8.77;2.00;;;12.40;99.90;;;11.70;100.00;101930.25;5073240;23;20010;-77
2022/10/11 01:57:56;;;;;;;9.50;2.47;;;12.40;99.90;;;11.74;100.00;101922.91;5098587;23;20013;-77
2022/10/11 02:00:20;;;;;;;14.85;1.95;;;12.40;99.90;;;11.80;100.00;101925.81;4976777;23;20015;-77
2022/10/11 02:03:21;;;;;;;6.03;1.65;;;12.50;99.90;;;11.82;100.00;101926.53;4976836;23;20081;-78
2022/10/11 02:05:44;;;;;;;6.32;1.85;;;12.60;99.90;;;11.87;100.00;101920.81;5056125;23;20045;-78
2022/10/11 02:07:58;;;;;;;8.05;2.20;;;12.60;99.90;;;11.90;100.00;101921.41;5098733;23;20093;-78
2022/10/11 02:10:59;;;;;;;7.70;1.63;;;12.60;99.90;;;11.93;100.00;101920.28;5074438;23;20069;-77
2022/10/11 02:13:26;;;;;;;6.85;1.50;;;12.70;99.90;;;11.96;100.00;101917.38;5079165;23;20025;-77
2022/10/11 02:15:29;;;;;;;9.95;2.33;;;12.70;99.90;;;11.94;100.00;101912.22;5033114;23;20012;-78
2022/10/11 02:17:39;;;;;;;9.18;1.55;;;12.70;99.90;;;11.97;100.00;101922.53;5072771;23;20411;-77
2022/10/11 02:19:49;;;;;;;6.78;1.92;;;12.70;99.90;;;11.96;100.00;101914.72;5098530;23;20002;-78
2022/10/11 02:21:56;;;;;;;10.80;2.03;;;12.70;99.90;;;11.94;100.00;101922.81;5073052;23;20006;-78
2022/10/11 02:24:09;;;;;;;13.80;2.95;;;12.70;99.90;;;11.91;100.00;101919.59;5071885;23;20061;-77
2022/10/11 02:26:13;;;;;;;5.80;1.90;;;12.70;99.90;;;11.84;100.00;101921.94;5098428;23;20009;-78
2022/10/11 02:28:22;;;;;;;6.75;2.10;;;12.60;99.90;;;11.82;100.00;101923.06;5072932;23;20006;-77
2022/10/11 02:30:23;;;;;;;8.23;2.25;;;12.60;99.90;;;11.76;100.00;101918.31;5073262;23;20010;-77
2022/10/11 02:32:26;;;;;;;12.25;2.00;;;12.50;99.90;;;11.72;100.00;101928.31;5072799;23;20020;-77
2022/10/11 02:34:43;;;;;;;6.07;1.77;;;12.50;99.90;;;11.69;100.00;101925.91;5072822;23;20010;-78
2022/10/11 02:37:02;;;;;;;8.50;1.40;;;12.50;99.90;;;11.64;100.00;101933.41;5075099;23;20013;-77
2022/10/11 02:39:14;;;;;;;8.80;1.30;;;12.40;99.90;;;11.61;100.00;101933.66;5098216;23;20013;-78
2022/10/11 02:41:29;;;;;;;6.57;1.50;;;12.40;99.90;;;11.61;100.00;101944.25;5073181;23;20020;-78
2022/10/11 02:43:49;;;;;;;6.63;1.98;;;12.40;99.90;;;11.58;100.00;101937.41;5098256;23;20092;-77
2022/10/11 02:45:55;;;;;;;9.65;2.03;;;12.40;99.90;;;11.58;100.00;101932.13;5073503;23;20025;-77
2022/10/11 02:47:57;;;;;;;12.75;2.08;;;12.40;99.90;;;11.58;100.00;101939.22;5073097;23;20002;-77
2022/10/11 02:49:59;;;;;;;7.30;1.77;;;12.40;99.90;;;11.62;100.00;101938.81;5073510;23;20343;-78
2022/10/11 02:52:04;;;;;;;6.40;1.55;;;12.40;99.90;;;11.66;100.00;101934.09;5075424;23;20006;-78
2022/10/11 02:54:05;;;;;;;9.05;1.63;;;12.40;99.90;;;11.69;100.00;101933.81;5100909;23;20016;-77
2022/10/11 02:56:06;;;;;;;5.78;1.63;;;12.50;99.90;;;11.73;100.00;101940.56;5050788;23;20007;-78
2022/10/11 02:58:07;;;;;;;9.52;2.10;;;12.50;99.90;;;11.76;100.00;101927.06;5101065;23;20016;-77
2022/10/11 03:00:13;;;;;;;9.18;1.77;;;12.50;99.90;;;11.77;100.00;101926.09;5101154;23;20005;-77
2022/10/11 03:02:14;;;;;;;6.30;1.63;;;12.60;99.90;;;11.77;100.00;101930.56;5051217;23;20014;-77
2022/10/11 03:04:15;;;;;;;9.70;1.95;;;12.60;99.90;;;11.72;100.00;101928.31;5074741;23;20061;-77
2022/10/11 03:06:15;;;;;;;10.70;2.03;;;12.60;99.90;;;11.66;100.00;101919.06;5100986;23;20008;-77
2022/10/11 03:08:17;;;;;;;9.93;2.60;;;12.50;99.90;;;11.60;100.00;101929.34;5101161;23;20055;-78
2022/10/11 03:10:18;;;;;;;6.15;1.58;;;12.40;99.90;;;11.59;100.00;101928.50;5100769;23;20395;-77
2022/10/11 03:12:19;;;;;;;11.68;2.10;;;12.40;99.90;;;11.53;100.00;101923.75;5101198;23;20006;-77
2022/10/11 03:14:20;;;;;;;20.63;2.60;;;12.40;99.90;;;11.54;100.00;101922.78;5075146;23;20002;-77
2022/10/11 03:16:21;;;;;;;9.15;2.70;;;12.40;99.90;;;11.60;100.00;101924.06;5051039;23;20007;-77
2022/10/11 03:18:21;;;;;;;9.57;1.85;;;12.40;99.90;;;11.65;100.00;101933.25;5075338;23;20034;-78
2022/10/11 03:20:23;;;;;;;9.77;2.47;;;12.40;99.90;;;11.69;100.00;101931.19;5100982;23;20002;-78
2022/10/11 03:22:24;;;;;;;10.05;1.50;;;12.50;99.90;;;11.68;100.00;101923.41;5074999;23;20009;-78
2022/10/11 03:24:25;;;;;;;9.82;1.77;;;12.50;99.90;;;11.77;100.00;101934.00;5074876;23;20383;-77
2022/10/11 03:26:26;;;;;;;5.30;1.90;;;12.50;99.90;;;11.78;100.00;101935.69;5074751;23;20493;-78
2022/10/11 03:28:27;;;;;;;6.38;2.38;;;12.60;99.90;;;11.81;100.00;101940.72;5100878;23;20029;-78
2022/10/11 03:30:28;;;;;;;5.93;1.30;;;12.60;99.90;;;11.78;100.00;101940.97;5075066;23;20366;-77
2022/10/11 03:32:29;;;;;;;5.53;1.73;;;12.60;99.90;;;11.73;100.00;101931.78;5075267;23;20022;-77
2022/10/11 03:34:30;;;;;;;9.77;1.88;;;12.60;99.90;;;11.74;100.00;101934.28;5101027;23;20045;-78
2022/10/11 03:36:31;;;;;;;10.20;1.88;;;12.60;99.90;;;11.71;100.00;101931.91;5100904;23;20022;-77
2022/10/11 03:38:32;;;;;;;7.45;1.40;;;12.60;99.90;;;11.75;100.00;101935.97;5074615;23;20126;-78
2022/10/11 03:40:33;;;;;;;6.95;1.92;;;12.50;99.90;;;11.75;100.00;101935.97;5075039;23;20010;-77
2022/10/11 03:42:35;;;;;;;9.40;2.17;;;12.50;99.90;;;11.72;100.00;101936.22;5075557;23;20470;-77
2022/10/11 03:44:37;;;;;;;7.78;1.85;;;12.60;99.90;;;11.73;100.00;101940.56;5074836;23;20013;-77
2022/10/11 03:46:38;;;;;;;5.95;1.77;;;12.50;99.90;;;11.72;100.00;101945.97;5100850;23;20342;-77
2022/10/11 03:48:39;;;;;;;8.55;1.73;;;12.50;99.90;;;11.69;100.00;101939.09;5100843;23;20001;-77
2022/10/11 03:50:40;;;;;;;7.85;1.83;;;12.50;99.90;;;11.69;100.00;101941.75;5075012;23;20455;-78
2022/10/11 03:52:41;;;;;;;8.93;2.08;;;12.50;99.90;;;11.71;100.00;101944.31;5100753;23;20005;-77
2022/10/11 03:54:42;;;;;;;6.95;2.03;;;12.50;99.90;;;11.73;100.00;101940.56;5100499;23;20005;-77
2022/10/11 03:56:42;;;;;;;8.90;2.17;;;12.50;99.90;;;11.68;100.00;101940.06;5100790;23;20056;-77
2022/10/11 03:58:43;;;;;;;5.45;1.58;;;12.50;99.90;;;11.68;100.00;101943.56;5100841;23;20010;-78
2022/10/11 04:00:44;;;;;;;6.97;1.55;;;12.50;99.90;;;11.68;100.00;101940.06;5100306;23;20014;-77
2022/10/11 04:02:45;;;;;;;9.90;1.90;;;12.50;99.90;;;11.68;100.00;101932.97;5099397;23;20037;-78
2022/10/11 04:04:46;;;;;;;11.95;2.47;;;12.50;99.90;;;11.67;100.00;101935.78;5049279;23;20009;-78
2022/10/11 04:06:47;;;;;;;7.15;1.80;;;12.50;99.90;;;11.68;100.00;101942.72;5099515;23;20002;-77
2022/10/11 04:08:48;;;;;;;10.23;2.17;;;12.50;99.90;;;11.72;100.00;101948.59;5073334;23;20006;-78
2022/10/11 04:10:49;;;;;;;16.42;2.63;;;12.50;99.90;;;11.75;100.00;101951.81;5073627;23;20006;-78
2022/10/11 04:12:49;;;;;;;6.93;1.67;;;12.60;99.90;;;11.72;100.00;101952.09;5099450;23;20012;-77
2022/10/11 04:14:50;;;;;;;8.30;1.73;;;12.50;99.90;;;11.75;100.00;101957.09;5099578;23;20009;-78
2022/10/11 04:16:51;;;;;;;10.27;1.60;;;12.60;99.90;;;11.76;100.00;101958.78;5073466;23;20013;-77
2022/10/11 04:18:52;;;;;;;9.38;1.85;;;12.60;99.90;;;11.78;100.00;101956.84;5073415;23;20009;-77
2022/10/11 04:20:53;;;;;;;6.88;2.00;;;12.60;99.90;;;11.75;100.00;101954.47;5098706;23;20005;-78
2022/10/11 04:22:54;;;;;;;6.32;1.63;;;12.60;99.90;;;11.73;100.00;101961.72;5073452;23;20021;-77
2022/10/11 04:24:55;;;;;;;4.20;1.30;;;12.60;99.90;;;11.76;100.00;101963.25;5073251;23;20010;-78
2022/10/11 04:26:56;;;;;;;9.52;2.22;;;12.60;99.90;;;11.76;100.00;101961.44;5073481;23;20002;-77
2022/10/11 04:28:57;;;;;;;9.63;2.35;;;12.60;99.90;;;11.76;100.00;101957.94;5073285;23;20049;-77
2022/10/11 04:30:58;;;;;;;6.65;1.67;;;12.60;99.90;;;11.77;100.00;101957.00;5099492;23;20005;-77
2022/10/11 04:32:59;;;;;;;9.80;1.85;;;12.60;99.90;;;11.78;100.00;101964.78;5073444;23;20006;-78
2022/10/11 04:35:00;;;;;;;7.13;1.98;;;12.60;99.90;;;11.78;100.00;101958.66;5073240;23;20010;-78
2022/10/11 04:37:01;;;;;;;12.95;3.20;;;12.60;99.90;;;11.72;100.00;101970.59;5099463;23;20009;-77
2022/10/11 04:39:02;;;;;;;11.50;2.17;;;12.50;99.90;;;11.67;100.00;101962.22;5073664;23;20017;-77
2022/10/11 04:41:13;;;;;;;10.82;3.08;;;12.50;99.90;;;11.71;100.00;101965.47;5049049;23;20470;-78
2022/10/11 04:43:16;;;;;;;11.82;2.60;;;12.50;99.90;;;11.67;100.00;101970.13;5099085;23;20017;-77
2022/10/11 04:45:17;;;;;;;4.68;1.52;;;12.50;99.90;;;11.68;100.00;101969.16;5073501;23;20003;-78
2022/10/11 04:47:18;;;;;;;9.88;2.40;;;12.50;99.90;;;11.68;100.00;101968.34;5099495;23;20006;-77
2022/10/11 04:49:19;;;;;;;8.98;2.00;;;12.50;99.90;;;11.65;100.00;101966.75;5099286;23;20089;-78
2022/10/11 04:51:20;;;;;;;9.38;2.83;;;12.50;99.90;;;11.70;100.00;101974.34;5073286;23;20501;-78
2022/10/11 04:53:22;;;;;;;6.45;2.10;;;12.50;99.90;;;11.68;100.00;101985.00;5073190;23;20013;-77
2022/10/11 04:55:22;;;;;;;7.00;1.92;;;12.50;99.90;;;11.69;100.00;101981.41;5073494;23;20010;-77
2022/10/11 04:57:23;;;;;;;9.35;2.25;;;12.50;99.90;;;11.69;100.00;101981.41;5099163;23;20032;-77
2022/10/11 04:59:24;;;;;;;12.82;2.60;;;12.50;99.90;;;11.72;100.00;101977.69;5073445;23;20010;-77
2022/10/11 05:01:25;;;;;;;5.28;2.42;;;12.50;99.90;;;11.71;100.00;101978.69;5099098;23;20013;-78
2022/10/11 05:03:26;;;;;;;11.77;2.17;;;12.50;99.90;;;11.63;100.00;101971.34;5099383;23;20045;-78
2022/10/11 05:05:27;;;;;;;8.18;2.88;;;12.50;99.90;;;11.62;100.00;101972.31;5098283;23;20013;-78
2022/10/11 05:07:28;;;;;;;11.20;2.08;;;12.50;99.90;;;11.55;100.00;101964.09;5072695;23;20038;-78
2022/10/11 05:09:29;;;;;;;8.95;2.00;;;12.40;99.90;;;11.54;100.00;101970.34;5097063;23;20001;-78
2022/10/11 05:11:30;;;;;;;7.00;3.05;;;12.40;99.90;;;11.64;100.00;101980.97;5072760;23;20451;-77
2022/10/11 05:13:33;;;;;;;9.85;1.67;;;12.40;99.90;;;11.67;100.00;101988.63;5072755;23;20009;-78
2022/10/11 05:15:34;;;;;;;10.48;2.20;;;12.50;99.90;;;11.60;100.00;101979.56;5098805;23;20013;-78
2022/10/11 05:17:35;;;;;;;8.77;2.58;;;12.40;99.90;;;11.68;100.00;101989.47;5072981;23;20010;-78
2022/10/11 05:19:36;;;;;;;9.95;3.95;;;12.40;99.90;;;11.68;100.00;101990.28;5099059;23;20017;-77
2022/10/11 05:21:37;;;;;;;9.38;3.03;;;12.40;99.90;;;11.69;100.00;101991.97;5098982;23;20426;-78
2022/10/11 05:23:38;;;;;;;12.48;2.85;;;12.50;99.90;;;11.67;100.00;101986.00;5098543;23;20012;-78
2022/10/11 05:25:39;;;;;;;8.95;3.10;;;12.40;99.90;;;11.66;100.00;101990.44;5098811;23;20005;-78
2022/10/11 05:27:40;;;;;;;7.53;3.60;;;12.50;99.90;;;11.66;100.00;101982.50;5072868;23;20041;-77
2022/10/11 05:29:41;;;;;;;7.38;3.15;;;12.50;99.90;;;11.70;100.00;101990.22;5073279;23;20362;-77
2022/10/11 05:31:42;;;;;;;7.07;3.25;;;12.50;99.90;;;11.64;100.00;101978.34;5072866;23;20006;-78
2022/10/11 05:33:43;;;;;;;9.77;3.85;;;12.50;99.90;;;11.62;100.00;101983.72;5072824;23;20012;-77
2022/10/11 05:35:44;;;;;;;10.50;3.13;;;12.50;99.90;;;11.65;100.00;101991.41;5097357;23;20009;-78
2022/10/11 05:37:45;;;;;;;9.90;4.20;;;12.40;99.90;;;11.61;100.00;101983.88;5098725;23;20080;-78
2022/10/11 05:39:46;;;;;;;13.02;4.13;;;12.40;99.90;;;11.62;100.00;101985.53;5072625;23;20010;-78
2022/10/11 05:41:47;;;;;;;9.23;3.80;;;12.40;99.90;;;11.66;100.00;101989.59;5098600;23;20338;-80
2022/10/11 05:43:48;;;;;;;9.75;3.90;;;12.50;99.90;;;11.70;100.00;101987.56;5098824;23;20009;-79
2022/10/11 05:45:49;;;;;;;13.50;4.45;;;12.50;99.90;;;11.63;100.00;101987.22;5072744;23;20045;-78
2022/10/11 05:47:50;;;;;;;13.00;4.65;;;12.40;99.90;;;11.64;100.00;101992.38;5098692;23;20007;-79
2022/10/11 05:49:51;;;;;;;10.80;4.30;;;12.40;99.90;;;11.67;100.00;101993.94;5072954;23;20001;-78
2022/10/11 05:51:52;;;;;;;15.80;4.25;;;12.40;99.90;;;11.70;100.00;101991.03;5098872;23;20369;-78
2022/10/11 05:53:53;;;;;;;13.60;5.50;;;12.40;99.90;;;11.75;100.00;101990.63;5072559;23;20013;-78
2022/10/11 05:55:54;;;;;;;11.40;4.68;;;12.50;99.90;;;11.70;100.00;102004.25;5072812;23;20013;-79
2022/10/11 05:57:56;;;;;;;10.07;3.97;;;12.50;99.90;;;11.55;100.00;101990.53;5098847;23;20036;-78
2022/10/11 05:59:57;;;;;;;12.20;4.15;;;12.50;99.90;;;11.57;100.00;101995.69;5072743;23;20362;-78
2022/10/11 06:01:57;;;;;;;8.18;4.65;;;12.40;99.90;;;11.61;100.00;102000.59;5098545;23;20005;-79
2022/10/11 06:03:58;;;;;;;11.90;5.05;;;12.40;99.90;;;11.68;100.00;102007.97;5072792;23;20017;-79
2022/10/11 06:06:02;;;;;;;11.70;5.75;;;12.40;99.90;;;11.58;100.00;102000.84;5098105;23;20008;-78
2022/10/11 06:08:08;;;;;;;14.63;5.53;;;12.40;99.90;;;11.54;100.00;102003.88;5098619;23;20385;-78
2022/10/11 06:10:10;;;;;;;13.38;5.15;;;12.40;99.90;;;11.54;100.00;101999.41;5073245;23;20009;-79
2022/10/11 06:12:11;;;;;;;10.15;4.72;;;12.40;99.90;;;11.51;100.00;101994.41;5072712;23;20002;-79
2022/10/11 06:14:12;;;;;;;13.35;5.50;;;12.40;99.90;;;11.60;100.00;102008.63;5048105;23;20022;-78
2022/10/11 06:16:13;;;;;;;11.35;5.35;;;12.40;99.90;;;11.59;100.00;102007.78;5097558;23;20068;-78
2022/10/11 06:18:14;;;;;;;13.23;5.97;;;12.40;99.90;;;11.62;100.00;102009.31;5072563;23;20033;-79
2022/10/11 06:20:15;;;;;;;9.80;5.03;;;12.40;99.90;;;11.59;100.00;102006.94;5072681;23;20016;-79
2022/10/11 06:22:17;;;;;;;11.52;5.70;;;12.40;99.90;;;11.59;100.00;102007.78;5073006;23;20033;-79
2022/10/11 06:24:18;;;;;;;13.30;4.07;;;12.40;99.90;;;11.62;100.00;102004.03;5072291;23;20073;-79
2022/10/11 06:26:18;;;;;;;10.68;4.18;;;12.40;99.90;;;11.68;100.00;102011.44;5096700;23;20005;-79
2022/10/11 06:28:19;;;;;;;8.93;4.35;;;12.40;99.90;;;11.70;100.00;102016.63;5048221;23;20003;-79
2022/10/11 06:30:20;;;;;;;12.25;4.72;;;12.50;99.90;;;11.63;100.00;102003.91;5072395;23;20013;-79
2022/10/11 06:32:21;;;;;;;9.43;4.63;;;12.50;99.90;;;11.72;100.00;102019.97;5098421;23;20494;-79
2022/10/11 06:34:23;;;;;;;10.02;4.28;;;12.50;99.90;;;11.74;100.00;102018.06;5098481;23;20006;-79
2022/10/11 06:36:24;;;;;;;10.18;4.15;;;12.50;99.90;;;11.72;100.00;102018.19;5098388;23;20013;-79
2022/10/11 06:38:26;;;;;;;10.82;2.90;;;12.50;99.90;;;11.72;100.00;102026.09;5097631;23;20139;-78
2022/10/11 06:40:26;;;;;;;10.32;3.28;;;12.50;99.90;;;11.70;100.00;102027.22;5098253;23;20064;-79
2022/10/11 06:42:27;;;;;;;5.90;2.75;;;12.50;99.90;;;11.72;100.00;102026.09;5098320;23;20006;-78
2022/10/11 06:44:28;;;;;;;9.38;3.50;;;12.50;99.90;;;11.71;100.00;102027.06;5098244;23;20009;-79
2022/10/11 06:46:32;;;;;;;9.25;3.35;;;12.50;99.90;;;11.71;100.00;102024.41;5072323;23;20021;-79
2022/10/11 06:48:33;;;;;;;8.63;3.08;;;12.50;99.90;;;11.64;100.00;102018.81;5072577;23;20450;-79
2022/10/11 06:50:34;;;;;;;7.35;3.42;;;12.50;99.90;;;11.61;100.00;102026.16;5048042;23;20459;-79
2022/10/11 06:52:34;;;;;;;11.98;4.03;;;12.50;99.90;;;11.60;100.00;102025.31;5098431;23;20009;-79
2022/10/11 06:54:35;;;;;;;7.32;3.60;;;12.40;99.90;;;11.58;100.00;102029.91;5072113;23;20014;-79
2022/10/11 06:56:36;;;;;;;8.63;2.90;;;12.40;99.90;;;11.57;100.00;102027.38;5072644;23;20014;-79
2022/10/11 06:58:38;;;;;;;9.80;3.80;;;12.40;99.90;;;11.53;100.00;102029.44;5072394;23;20014;-79
2022/10/11 07:00:39;;;;;;;8.52;3.45;;;12.40;99.90;;;11.52;100.00;102025.16;5072813;23;20469;-79
2022/10/11 07:02:40;;;;;;;10.40;3.00;;;12.30;99.90;;;11.47;100.00;102024.69;5096842;23;20012;-79
2022/10/11 07:04:41;;;;;;;11.32;3.47;;;12.30;99.90;;;11.42;100.00;102024.25;5072607;23;20470;-79
2022/10/11 07:06:42;;;;;;;12.57;3.75;;;12.30;99.90;;;11.42;100.00;102026.88;5098353;23;20001;-79
2022/10/11 07:08:43;;;;;;;11.02;3.53;;;12.30;99.90;;;11.42;100.00;102020.75;5097976;23;20002;-79
2022/10/11 07:10:43;;;;;;;9.05;2.60;;;12.20;99.90;;;11.45;100.00;102026.63;5072484;23;20379;-79
2022/10/11 07:12:44;;;;;;;14.25;3.45;;;12.20;99.90;;;11.47;100.00;102029.97;5098610;23;20010;-79
2022/10/11 07:14:45;;;;;;;5.72;2.40;;;12.20;99.90;;;11.43;100.00;102017.16;5098288;23;20016;-79
2022/10/11 07:16:46;;;;;;;8.73;2.50;;;12.20;99.90;;;11.47;100.00;102034.41;5098264;23;20005;-79
2022/10/11 07:18:50;;;;;;;7.07;2.40;;;12.30;99.90;;;11.42;100.00;102031.31;5098185;23;20029;-79
2022/10/11 07:20:51;;;;;;;11.88;2.75;;;12.20;99.90;;;11.28;100.00;102027.22;5072867;23;20006;-79
2022/10/11 07:22:52;;;;;;;9.02;2.83;;;12.20;99.90;;;11.22;100.00;102029.53;5072283;23;20078;-79
2022/10/11 07:24:52;;;;;;;10.55;2.70;;;12.10;99.90;;;11.20;100.00;102039.41;5097977;23;20021;-79
2022/10/11 07:26:53;;;;;;;10.48;3.90;;;12.00;99.90;;;11.06;100.00;102036.09;5097892;23;20009;-79
2022/10/11 07:28:54;;;;;;;8.75;2.10;;;12.00;99.90;;;10.95;100.00;102041.44;5072320;23;20057;-79
2022/10/11 07:30:57;;;;;;;7.80;2.28;;;11.90;99.90;;;10.99;100.00;102044.66;5098246;23;20024;-79
2022/10/11 07:32:58;;;;;;;10.05;2.53;;;11.80;99.90;;;10.96;100.00;102051.00;5072439;23;20449;-79
2022/10/11 07:34:59;;;;;;;9.68;3.38;;;11.80;99.90;;;10.89;100.00;102039.31;5098110;23;20006;-79
2022/10/11 07:37:00;;;;;;;7.03;2.17;;;11.80;99.90;;;10.95;100.00;102043.25;5099292;23;20009;-79
2022/10/11 07:39:05;;;;;;;5.60;2.30;;;11.80;99.90;;;10.91;100.00;102049.72;5073573;23;20100;-79
2022/10/11 07:41:07;;;;;;;7.00;2.95;;;11.70;99.90;;;10.95;100.00;102052.00;5074133;23;20010;-79
2022/10/11 07:43:12;;;;;;;10.52;2.70;;;11.80;99.90;;;10.88;100.00;102042.06;5049405;23;20063;-79
2022/10/11 07:45:13;;;;;;;4.60;2.10;;;11.70;99.90;;;10.94;100.00;102052.13;5099673;23;20001;-79
2022/10/11 07:47:14;;;;;;;7.93;2.58;;;11.70;99.90;;;10.88;100.00;102044.69;5073791;23;20065;-79
2022/10/11 07:49:15;;;;;;;5.20;1.83;;;11.70;99.90;;;10.94;100.00;102063.50;5073817;23;20033;-79
2022/10/11 07:51:19;;;;;;;7.95;2.35;;;11.80;99.90;;;10.91;100.00;102053.22;5099807;23;20001;-79
2022/10/11 07:53:20;;;;;;;8.98;2.80;;;11.80;99.90;;;10.91;100.00;102050.56;5073548;23;20384;-79
2022/10/11 07:55:20;;;;;;;10.13;3.25;;;11.70;99.90;;;10.94;100.00;102054.75;5073741;23;20005;-79
2022/10/11 07:57:21;;;;;;;10.40;2.55;;;11.70;99.90;;;10.95;100.00;102062.56;5099635;23;20010;-79
2022/10/11 07:59:22;;;;;;;11.02;2.35;;;11.80;99.90;;;10.91;100.00;102061.13;5073535;23;20006;-79
2022/10/11 08:01:26;;;;;;;9.95;2.58;;;11.70;99.90;;;10.96;100.00;102056.28;5099508;23;20032;-79
2022/10/11 08:03:27;;;;;;;6.43;3.05;;;11.70;99.90;;;10.93;100.00;102061.81;5049247;23;20325;-79
2022/10/11 08:05:28;;;;;;;7.13;2.05;;;11.70;99.90;;;11.01;100.00;102063.84;5099446;23;20009;-79
2022/10/11 08:07:29;;;;;;;6.78;2.20;;;11.80;99.90;;;10.97;100.00;102059.78;5073791;23;20006;-79
2022/10/11 08:09:31;;;;;;;9.85;2.63;;;11.80;99.90;;;11.02;100.00;102060.25;5073318;23;20399;-79
2022/10/11 08:11:36;;;;;;;5.85;2.05;;;11.80;99.90;;;11.04;100.00;102060.97;5073240;23;20382;-79
2022/10/11 08:13:37;;;;;;;10.52;2.75;;;11.80;99.90;;;11.09;100.00;102062.25;5073898;23;20015;-79
2022/10/11 08:15:38;;;;;;;6.93;2.35;;;11.90;99.90;;;11.22;100.00;102067.34;5073511;23;20010;-79
2022/10/11 08:17:38;;;;;;;7.90;2.45;;;11.90;99.90;;;11.24;100.00;102075.97;5099428;23;20032;-79
2022/10/11 08:19:40;;;;;;;8.75;2.78;;;12.00;99.90;;;11.23;100.00;102070.84;5099400;23;20005;-79
2022/10/11 08:21:41;;;;;;;8.85;2.40;;;12.00;99.90;;;11.28;100.00;102076.56;5073424;23;20016;-79
2022/10/11 08:23:42;;;;;;;8.35;2.72;;;12.10;99.90;;;11.37;100.00;102081.94;5097516;23;20005;-79
2022/10/11 08:25:46;;;;;;;11.57;2.58;;;12.10;99.90;;;11.47;100.00;102085.47;5099312;23;20430;-79
2022/10/11 08:27:47;;;;;;;13.43;3.15;;;12.20;99.90;;;11.57;100.00;102077.59;5073930;23;20001;-79
2022/10/11 08:29:48;;;;;;;10.20;2.22;;;12.30;99.90;;;11.61;100.00;102053.44;5099348;23;20064;-79